createdAt,value
2023-01-17T00:02:51.411Z,2.80
2023-01-17T00:05:36.680Z,2.80
2023-01-17T00:08:22.086Z,2.80
2023-01-17T00:10:48.885Z,2.80
2023-01-17T00:13:15.666Z,2.80
2023-01-17T00:15:42.574Z,2.70
2023-01-17T00:18:09.398Z,2.60
2023-01-17T00:20:54.669Z,2.60
2023-01-17T00:23:44.175Z,2.50
2023-01-17T00:26:18.864Z,2.20
2023-01-17T00:28:47.451Z,2.40
2023-01-17T00:31:15.086Z,2.40
2023-01-17T00:33:41.855Z,2.40
2023-01-17T00:36:09.040Z,2.40
2023-01-17T00:38:37.265Z,2.40
2023-01-17T00:41:04.210Z,2.30
2023-01-17T00:43:49.617Z,2.40
2023-01-17T00:46:35.371Z,2.40
2023-01-17T00:49:20.743Z,2.30
2023-01-17T00:52:06.116Z,2.40
2023-01-17T00:54:51.451Z,2.40
2023-01-17T00:57:36.880Z,2.40
2023-01-17T01:00:22.729Z,2.40
2023-01-17T01:03:08.074Z,2.40
2023-01-17T01:05:55.058Z,2.40
2023-01-17T01:08:45.120Z,2.40
2023-01-17T01:11:37.759Z,2.50
2023-01-17T01:14:23.561Z,2.40
2023-01-17T01:17:08.854Z,3.10
2023-01-17T01:19:54.404Z,2.20
2023-01-17T01:22:39.817Z,2.40
2023-01-17T01:25:26.909Z,2.50
2023-01-17T01:28:12.314Z,2.50
2023-01-17T01:30:57.622Z,2.50
2023-01-17T01:33:24.369Z,2.50
2023-01-17T01:35:53.656Z,2.50
2023-01-17T01:38:23.032Z,2.10
2023-01-17T01:40:54.342Z,2.50
2023-01-17T01:43:41.107Z,2.50
2023-01-17T01:46:08.016Z,2.50
2023-01-17T01:48:44.638Z,2.40
2023-01-17T01:51:13.877Z,2.40
2023-01-17T01:53:42.650Z,2.40
2023-01-17T01:56:11.740Z,2.30
2023-01-17T01:58:38.847Z,2.40
2023-01-17T02:01:06.356Z,2.30
2023-01-17T02:03:33.236Z,2.40
2023-01-17T02:06:06.193Z,4.60
2023-01-17T02:08:32.966Z,6.00
2023-01-17T02:10:59.708Z,2.40
2023-01-17T02:13:26.934Z,2.40
2023-01-17T02:16:21.864Z,2.40
2023-01-17T02:19:20.885Z,2.40
2023-01-17T02:22:02.658Z,2.40
2023-01-17T02:25:00.098Z,2.40
2023-01-17T02:28:06.763Z,2.30
2023-01-17T02:31:03.671Z,2.30
2023-01-17T02:33:59.423Z,2.30
2023-01-17T02:36:33.514Z,2.30
2023-01-17T02:39:15.588Z,2.20
2023-01-17T02:41:44.329Z,2.20
2023-01-17T02:44:11.395Z,2.20
2023-01-17T02:47:15.794Z,2.20
2023-01-17T02:49:42.635Z,4.00
2023-01-17T02:52:38.940Z,2.10
2023-01-17T02:55:20.782Z,2.10
2023-01-17T02:58:08.179Z,2.10
2023-01-17T03:00:38.020Z,2.00
2023-01-17T03:03:10.868Z,2.10
2023-01-17T03:05:44.179Z,2.10
2023-01-17T03:08:11.125Z,2.10
2023-01-17T03:10:37.899Z,4.90
2023-01-17T03:13:04.712Z,1.90
2023-01-17T03:15:31.524Z,2.10
2023-01-17T03:18:00.800Z,2.10
2023-01-17T03:20:27.632Z,2.20
2023-01-17T03:22:54.412Z,2.20
2023-01-17T03:25:23.364Z,2.20
2023-01-17T03:27:50.137Z,4.90
2023-01-17T03:30:17.756Z,2.30
2023-01-17T03:32:44.544Z,2.30
2023-01-17T03:35:11.307Z,4.60
2023-01-17T03:37:38.118Z,2.20
2023-01-17T03:40:05.397Z,4.20
2023-01-17T03:42:32.220Z,2.30
2023-01-17T03:44:59.027Z,2.30
2023-01-17T03:47:25.823Z,2.10
2023-01-17T03:49:52.616Z,2.20
2023-01-17T03:52:19.458Z,5.00
2023-01-17T03:54:46.308Z,2.30
2023-01-17T03:57:13.100Z,2.00
2023-01-17T03:59:39.875Z,2.20
2023-01-17T04:02:06.752Z,4.30
2023-01-17T04:04:34.132Z,2.20
2023-01-17T04:07:00.908Z,2.20
2023-01-17T04:09:27.703Z,2.20
2023-01-17T04:11:54.584Z,5.10
2023-01-17T04:14:21.477Z,2.20
2023-01-17T04:16:48.365Z,2.10
2023-01-17T04:19:15.282Z,1.90
2023-01-17T04:21:42.081Z,2.10
2023-01-17T04:24:08.985Z,2.10
2023-01-17T04:26:35.748Z,2.00
2023-01-17T04:29:02.730Z,2.00
2023-01-17T04:31:29.521Z,2.00
2023-01-17T04:33:56.607Z,2.00
2023-01-17T04:36:23.400Z,1.80
2023-01-17T04:38:50.162Z,2.00
2023-01-17T04:41:16.942Z,1.90
2023-01-17T04:43:43.806Z,1.90
2023-01-17T04:46:11.187Z,1.90
2023-01-17T04:48:38.326Z,1.80
2023-01-17T04:51:05.468Z,1.70
2023-01-17T04:53:32.288Z,1.70
2023-01-17T04:55:59.061Z,1.70
2023-01-17T04:58:25.968Z,1.50
2023-01-17T05:00:52.803Z,1.40
2023-01-17T05:03:24.034Z,1.50
2023-01-17T05:05:50.834Z,4.80
2023-01-17T05:08:17.674Z,1.40
2023-01-17T05:10:46.216Z,1.50
2023-01-17T05:13:13.025Z,4.10
2023-01-17T05:15:39.812Z,1.30
2023-01-17T05:18:08.698Z,1.40
2023-01-17T05:20:35.753Z,1.40
2023-01-17T05:23:02.569Z,4.40
2023-01-17T05:25:30.888Z,1.30
2023-01-17T05:27:59.963Z,1.30
2023-01-17T05:30:27.214Z,1.40
2023-01-17T05:32:54.734Z,1.30
2023-01-17T05:35:23.606Z,1.40
2023-01-17T05:37:50.756Z,1.40
2023-01-17T05:40:22.172Z,1.40
2023-01-17T05:42:49.766Z,1.40
2023-01-17T05:45:17.119Z,1.40
2023-01-17T05:47:44.869Z,1.30
2023-01-17T05:50:16.102Z,1.30
2023-01-17T05:52:49.386Z,1.50
2023-01-17T05:55:16.158Z,1.40
2023-01-17T05:57:42.951Z,1.40
2023-01-17T06:00:10.281Z,1.00
2023-01-17T06:02:37.113Z,1.30
2023-01-17T06:05:04.233Z,2.20
2023-01-17T06:07:31.272Z,1.30
2023-01-17T06:09:58.247Z,1.20
2023-01-17T06:12:25.000Z,1.20
2023-01-17T06:14:51.777Z,1.20
2023-01-17T06:21:43.070Z,1.20
2023-01-17T06:24:09.870Z,1.20
2023-01-17T06:26:36.647Z,1.20
2023-01-17T06:29:03.478Z,1.20
2023-01-17T06:31:30.291Z,3.00
2023-01-17T06:33:57.131Z,1.20
2023-01-17T06:36:24.414Z,1.10
2023-01-17T06:38:51.463Z,1.00
2023-01-17T06:41:18.250Z,0.80
2023-01-17T06:43:45.029Z,1.00
2023-01-17T06:46:11.846Z,1.00
2023-01-17T06:48:38.727Z,1.00
2023-01-17T06:51:05.688Z,0.90
2023-01-17T06:53:32.544Z,0.90
2023-01-17T06:55:59.342Z,0.80
2023-01-17T06:58:26.197Z,0.80
2023-01-17T07:00:53.221Z,-0.70
2023-01-17T07:03:24.649Z,0.80
2023-01-17T07:05:51.906Z,0.70
2023-01-17T07:08:19.503Z,0.70
2023-01-17T07:10:47.232Z,0.70
2023-01-17T07:13:14.391Z,0.60
2023-01-17T07:15:41.218Z,0.60
2023-01-17T07:18:08.068Z,0.60
2023-01-17T07:20:34.918Z,0.60
2023-01-17T07:23:01.884Z,2.50
2023-01-17T07:25:28.772Z,3.50
2023-01-17T07:27:57.621Z,0.60
2023-01-17T07:30:24.905Z,0.60
2023-01-17T07:32:53.348Z,0.40
2023-01-17T07:35:21.473Z,0.50
2023-01-17T07:37:49.674Z,0.60
2023-01-17T07:40:17.563Z,0.60
2023-01-17T07:42:44.709Z,0.60
2023-01-17T07:45:15.161Z,0.60
2023-01-17T07:47:42.021Z,0.70
2023-01-17T07:50:09.585Z,0.80
2023-01-17T07:52:36.365Z,0.80
2023-01-17T07:55:03.245Z,0.90
2023-01-17T07:57:30.209Z,1.00
2023-01-17T07:59:57.143Z,1.10
2023-01-17T08:02:24.069Z,1.20
2023-01-17T08:04:50.992Z,1.20
2023-01-17T08:07:17.827Z,1.30
2023-01-17T08:09:44.816Z,1.30
2023-01-17T08:12:11.623Z,1.30
2023-01-17T08:14:38.427Z,1.30
2023-01-17T08:17:06.482Z,1.00
2023-01-17T08:32:09.890Z,1.70
2023-01-17T08:34:36.671Z,1.80
2023-01-17T08:37:03.526Z,1.80
2023-01-17T08:39:30.320Z,1.90
2023-01-17T08:41:57.505Z,1.80
2023-01-17T08:44:24.330Z,1.90
2023-01-17T08:46:51.110Z,2.10
2023-01-17T08:49:17.984Z,5.10
2023-01-17T08:51:44.822Z,2.20
2023-01-17T08:54:13.404Z,2.20
2023-01-17T08:56:40.217Z,2.20
2023-01-17T08:59:07.090Z,4.30
2023-01-17T09:01:40.826Z,2.30
2023-01-17T09:04:08.947Z,2.20
2023-01-17T09:06:42.790Z,2.30
2023-01-17T09:09:13.687Z,2.40
2023-01-17T09:11:40.489Z,2.40
2023-01-17T09:14:07.276Z,2.50
2023-01-17T09:16:34.227Z,2.50
2023-01-17T09:19:01.047Z,2.50
2023-01-17T09:21:27.820Z,2.60
2023-01-17T09:23:54.987Z,2.40
2023-01-17T09:26:22.610Z,2.70
2023-01-17T09:28:49.620Z,2.70
2023-01-17T09:31:17.604Z,2.80
2023-01-17T09:33:44.774Z,2.90
2023-01-17T09:36:11.629Z,3.00
2023-01-17T09:38:38.934Z,2.90
2023-01-17T09:41:17.455Z,3.00
2023-01-17T09:43:54.292Z,3.10
2023-01-17T09:46:24.318Z,3.10
2023-01-17T09:49:22.558Z,3.00
2023-01-17T09:51:49.351Z,3.20
2023-01-17T09:54:23.435Z,0.80
2023-01-17T09:57:00.932Z,3.30
2023-01-17T09:59:39.772Z,3.40
2023-01-17T10:02:11.338Z,3.40
2023-01-17T10:04:49.043Z,4.90
2023-01-17T10:07:34.721Z,3.50
2023-01-17T10:10:21.738Z,3.50
2023-01-17T10:12:51.535Z,3.60
2023-01-17T10:15:46.369Z,3.70
2023-01-17T10:18:41.238Z,3.80
2023-01-17T10:21:21.424Z,3.80
2023-01-17T10:23:48.210Z,3.90
2023-01-17T10:26:16.594Z,3.90
2023-01-17T10:28:49.661Z,6.70
2023-01-17T10:31:26.220Z,4.00
2023-01-17T10:33:57.276Z,4.10
2023-01-17T10:36:29.280Z,4.10
2023-01-17T10:39:12.826Z,4.20
2023-01-17T10:41:43.678Z,6.90
2023-01-17T10:44:28.159Z,4.20
2023-01-17T10:47:03.873Z,4.10
2023-01-17T10:49:30.694Z,4.30
2023-01-17T10:52:00.667Z,4.20
2023-01-17T10:55:05.477Z,4.30
2023-01-17T10:57:41.452Z,4.20
2023-01-17T11:00:23.559Z,4.20
2023-01-17T11:02:50.899Z,4.10
2023-01-17T11:05:29.021Z,4.00
2023-01-17T11:08:06.373Z,4.00
2023-01-17T11:10:40.100Z,3.90
2023-01-17T11:13:20.318Z,3.90
2023-01-17T11:15:57.744Z,3.90
2023-01-17T11:18:27.702Z,6.20
2023-01-17T11:21:06.586Z,3.80
2023-01-17T11:23:33.524Z,3.80
2023-01-17T11:26:05.978Z,5.10
2023-01-17T11:28:34.098Z,3.60
2023-01-17T11:31:08.087Z,3.50
2023-01-17T11:33:56.583Z,3.50
2023-01-17T11:36:27.605Z,3.40
2023-01-17T11:39:21.489Z,3.40
2023-01-17T11:41:48.220Z,3.30
2023-01-17T11:44:32.224Z,3.30
2023-01-17T11:47:14.144Z,3.30
2023-01-17T11:49:42.068Z,3.30
2023-01-17T11:52:32.900Z,3.30
2023-01-17T11:54:59.740Z,4.30
2023-01-17T11:57:31.329Z,3.40
2023-01-17T12:00:20.065Z,3.40
2023-01-17T12:03:13.960Z,3.50
2023-01-17T12:05:44.091Z,3.50
2023-01-17T12:08:17.542Z,3.50
2023-01-17T12:10:56.276Z,3.60
2023-01-17T12:14:03.447Z,3.60
2023-01-17T12:16:50.714Z,3.60
2023-01-17T12:19:38.907Z,3.60
2023-01-17T12:22:19.788Z,3.60
2023-01-17T12:25:01.815Z,3.60
2023-01-17T12:27:42.555Z,3.70
2023-01-17T12:30:44.961Z,3.80
2023-01-17T12:33:49.381Z,3.80
2023-01-17T12:36:42.196Z,3.90
2023-01-17T12:39:11.953Z,3.90
2023-01-17T12:41:53.300Z,3.90
2023-01-17T12:44:21.266Z,6.30
2023-01-17T12:46:57.190Z,4.70
2023-01-17T12:49:46.645Z,4.00
2023-01-17T12:52:25.527Z,4.00
2023-01-17T12:55:02.041Z,4.10
2023-01-17T12:57:40.408Z,4.00
2023-01-17T13:00:12.671Z,4.10
2023-01-17T13:03:04.415Z,4.10
2023-01-17T13:05:36.450Z,4.00
2023-01-17T13:08:12.676Z,4.10
2023-01-17T13:10:56.448Z,4.10
2023-01-17T13:13:29.981Z,4.00
2023-01-17T13:16:05.867Z,3.90
2023-01-17T13:18:33.474Z,3.90
2023-01-17T13:21:20.761Z,3.90
2023-01-17T13:23:59.646Z,3.80
2023-01-17T13:26:40.247Z,3.80
2023-01-17T13:29:12.602Z,3.70
2023-01-17T13:31:49.587Z,3.70
2023-01-17T13:34:25.602Z,3.60
2023-01-17T13:37:08.584Z,3.50
2023-01-17T13:40:00.461Z,3.50
2023-01-17T13:42:56.247Z,3.40
2023-01-17T13:45:27.017Z,3.30
2023-01-17T13:47:54.114Z,3.30
2023-01-17T13:50:36.377Z,4.40
2023-01-17T13:53:34.499Z,5.40
2023-01-17T13:56:19.476Z,3.00
2023-01-17T13:58:50.419Z,2.90
2023-01-17T14:01:43.010Z,2.50
2023-01-17T14:04:12.948Z,2.70
2023-01-17T14:06:48.874Z,5.00
2023-01-17T14:09:19.737Z,2.50
2023-01-17T14:12:02.519Z,2.40
2023-01-17T14:14:41.856Z,2.40
2023-01-17T14:17:22.957Z,2.30
2023-01-17T14:19:50.928Z,4.80
2023-01-17T14:22:20.834Z,2.20
2023-01-17T14:25:14.719Z,2.10
2023-01-17T14:27:54.823Z,2.00
2023-01-17T14:30:22.643Z,2.00
2023-01-17T14:33:01.820Z,3.30
2023-01-17T14:35:40.058Z,4.80
2023-01-17T14:38:24.475Z,1.80
2023-01-17T14:41:02.421Z,1.80
2023-01-17T14:43:32.360Z,1.70
2023-01-17T14:46:00.493Z,1.70
2023-01-17T14:48:27.352Z,1.70
2023-01-17T14:50:55.070Z,1.60
2023-01-17T14:53:28.139Z,1.60
2023-01-17T14:56:18.103Z,1.70
2023-01-17T14:58:46.654Z,1.60
2023-01-17T15:01:20.315Z,1.60
2023-01-17T15:03:53.957Z,1.50
2023-01-17T15:06:31.738Z,1.50
2023-01-17T15:09:00.935Z,1.50
2023-01-17T15:11:30.181Z,1.50
2023-01-17T15:13:59.116Z,1.40
2023-01-17T15:16:27.847Z,1.50
2023-01-17T15:18:55.206Z,1.50
2023-01-17T15:21:29.747Z,1.50
2023-01-17T15:24:01.521Z,1.50
2023-01-17T15:26:30.035Z,3.70
2023-01-17T15:29:05.027Z,1.30
2023-01-17T15:31:43.025Z,1.50
2023-01-17T15:34:25.631Z,1.40
2023-01-17T15:36:52.540Z,1.50
2023-01-17T15:39:24.754Z,1.50
2023-01-17T15:41:52.231Z,1.60
2023-01-17T15:44:24.921Z,1.50
2023-01-17T15:46:51.699Z,1.50
2023-01-17T15:49:19.215Z,1.40
2023-01-17T15:51:56.133Z,1.40
2023-01-17T15:54:28.773Z,1.50
2023-01-17T15:57:20.909Z,1.30
2023-01-17T15:59:56.402Z,1.50
2023-01-17T16:02:28.982Z,1.40
2023-01-17T16:04:55.937Z,2.50
2023-01-17T16:07:28.685Z,1.20
2023-01-17T16:10:16.480Z,1.30
2023-01-17T16:12:43.305Z,1.30
2023-01-17T16:15:13.272Z,1.30
2023-01-17T16:17:41.387Z,1.30
2023-01-17T16:20:24.931Z,1.10
2023-01-17T16:22:52.262Z,1.40
2023-01-17T16:25:20.871Z,4.00
2023-01-17T16:27:48.040Z,1.40
2023-01-17T16:30:19.350Z,1.40
2023-01-17T16:32:48.410Z,1.40
2023-01-17T16:35:24.960Z,1.30
2023-01-17T16:37:53.312Z,1.30
2023-01-17T16:40:21.076Z,1.30
2023-01-17T16:42:48.305Z,1.30
2023-01-17T16:45:15.510Z,1.30
2023-01-17T16:47:45.955Z,1.30
2023-01-17T16:50:14.423Z,1.40
2023-01-17T16:52:41.235Z,1.20
2023-01-17T16:55:09.931Z,1.40
2023-01-17T16:57:36.766Z,1.40
2023-01-17T17:00:04.662Z,1.30
2023-01-17T17:02:31.651Z,1.40
2023-01-17T17:04:58.631Z,1.90
2023-01-17T17:07:25.531Z,1.40
2023-01-17T17:09:52.324Z,1.40
2023-01-17T17:12:19.171Z,1.40
2023-01-17T17:14:45.995Z,1.40
2023-01-17T17:17:12.789Z,1.20
2023-01-17T17:19:39.707Z,1.40
2023-01-17T17:22:06.727Z,1.40
2023-01-17T17:24:33.798Z,1.40
2023-01-17T17:27:00.661Z,3.10
2023-01-17T17:29:27.480Z,1.30
2023-01-17T17:31:54.279Z,1.40
2023-01-17T17:34:23.195Z,1.30
2023-01-17T17:36:50.066Z,1.30
2023-01-17T17:39:16.884Z,1.00
2023-01-17T17:41:45.440Z,3.50
2023-01-17T17:44:12.400Z,1.40
2023-01-17T17:46:39.481Z,1.50
2023-01-17T17:49:06.835Z,1.30
2023-01-17T17:51:37.995Z,1.40
2023-01-17T17:54:09.565Z,1.40
2023-01-17T17:56:36.473Z,1.40
2023-01-17T17:59:04.221Z,1.20
2023-01-17T18:01:31.143Z,1.40
2023-01-17T18:04:01.575Z,1.40
2023-01-17T18:06:28.419Z,1.40
2023-01-17T18:08:55.244Z,3.50
2023-01-17T18:11:26.163Z,1.40
2023-01-17T18:13:53.564Z,1.40
2023-01-17T18:16:31.801Z,1.40
2023-01-17T18:18:58.996Z,1.40
2023-01-17T18:21:27.655Z,1.30
2023-01-17T18:23:57.803Z,1.40
2023-01-17T18:26:29.550Z,1.40
2023-01-17T18:28:56.914Z,1.00
2023-01-17T18:31:27.533Z,1.40
2023-01-17T18:33:54.886Z,1.40
2023-01-17T18:36:21.895Z,1.40
2023-01-17T18:38:48.840Z,1.40
2023-01-17T18:41:30.124Z,1.40
2023-01-17T18:43:57.625Z,1.40
2023-01-17T18:46:28.656Z,1.30
2023-01-17T18:48:57.024Z,1.00
2023-01-17T18:51:24.045Z,1.40
2023-01-17T18:53:50.852Z,1.30
2023-01-17T18:56:22.035Z,1.30
2023-01-17T18:58:49.795Z,1.20
2023-01-17T19:18:34.263Z,2.20
2023-01-17T19:21:09.282Z,1.20
2023-01-17T19:23:36.499Z,1.20
2023-01-17T19:26:04.275Z,1.20
2023-01-17T19:28:31.190Z,1.20
2023-01-17T19:31:11.469Z,1.20
2023-01-17T19:33:39.090Z,1.20
2023-01-17T19:36:08.850Z,1.20
2023-01-17T19:38:36.244Z,1.20
2023-01-17T19:41:10.220Z,1.20
2023-01-17T19:43:37.172Z,1.20
2023-01-17T19:46:04.334Z,1.20
2023-01-17T19:48:31.232Z,1.20
2023-01-17T19:51:06.614Z,1.20
2023-01-17T19:53:33.650Z,4.10
2023-01-17T19:56:00.449Z,1.30
2023-01-17T19:58:27.245Z,1.20
2023-01-17T20:00:54.955Z,1.30
2023-01-17T20:03:22.008Z,1.30
2023-01-17T20:05:56.560Z,1.30
2023-01-17T20:08:23.339Z,1.30
2023-01-17T20:10:50.171Z,1.30
2023-01-17T20:13:17.017Z,1.30
2023-01-17T20:15:43.809Z,1.30
2023-01-17T20:18:12.639Z,1.30
2023-01-17T20:20:56.279Z,1.30
2023-01-17T20:23:23.684Z,1.30
2023-01-17T20:25:59.130Z,4.00
2023-01-17T20:28:26.911Z,1.30
2023-01-17T20:30:55.292Z,1.30
2023-01-17T20:33:24.826Z,1.20
2023-01-17T20:36:04.889Z,1.30
2023-01-17T20:38:43.804Z,1.30
2023-01-17T20:41:14.099Z,1.20
2023-01-17T20:43:44.472Z,1.30
2023-01-17T20:46:11.615Z,1.30
2023-01-17T20:48:43.881Z,1.30
2023-01-17T20:51:11.038Z,1.30
2023-01-17T20:53:38.465Z,1.30
2023-01-17T20:56:05.762Z,1.20
2023-01-17T21:06:45.837Z,1.30
2023-01-17T21:09:13.989Z,1.30
2023-01-17T21:11:40.788Z,1.40
2023-01-17T21:14:07.803Z,1.40
2023-01-17T21:16:35.024Z,3.70
2023-01-17T21:19:02.033Z,1.50
2023-01-17T21:21:31.749Z,1.50
2023-01-17T21:23:59.172Z,1.50
2023-01-17T21:26:26.760Z,1.50
2023-01-17T21:28:53.748Z,1.50
2023-01-17T21:31:25.170Z,4.10
2023-01-17T21:33:55.964Z,1.50
2023-01-17T21:36:24.274Z,1.50
2023-01-17T21:38:52.312Z,1.40
2023-01-17T21:41:29.508Z,1.40
2023-01-17T21:43:57.477Z,1.40
2023-01-17T21:46:24.441Z,1.40
2023-01-17T21:48:51.218Z,1.40
2023-01-17T21:51:19.494Z,1.30
2023-01-17T21:53:46.336Z,1.30
2023-01-17T21:56:32.172Z,1.30
2023-01-17T21:58:59.077Z,1.30
2023-01-17T22:01:27.497Z,1.30
2023-01-17T22:03:56.274Z,1.30
2023-01-17T22:06:28.126Z,1.40
2023-01-17T22:08:55.235Z,1.40
2023-01-17T22:11:23.526Z,1.40
2023-01-17T22:13:50.542Z,1.40
2023-01-17T22:16:18.695Z,1.30
2023-01-17T22:18:45.650Z,1.40
2023-01-17T22:21:14.124Z,1.40
2023-01-17T22:23:44.895Z,1.40
2023-01-17T22:26:11.807Z,1.40
2023-01-17T22:28:39.494Z,1.20
2023-01-17T22:31:08.968Z,1.40
2023-01-17T22:33:36.787Z,1.40
2023-01-17T22:36:04.112Z,1.40
2023-01-17T22:38:31.481Z,1.40
2023-01-17T22:41:07.652Z,1.40
2023-01-17T22:43:39.001Z,1.40
2023-01-17T22:46:06.650Z,1.50
2023-01-17T22:48:33.988Z,1.40
2023-01-17T22:51:02.352Z,1.40
2023-01-17T22:53:29.283Z,1.50
2023-01-17T22:56:03.519Z,1.40
2023-01-17T22:58:30.704Z,1.40
2023-01-17T23:01:08.553Z,1.40
2023-01-17T23:03:35.598Z,1.40
2023-01-17T23:06:16.124Z,1.40
2023-01-17T23:08:44.463Z,1.40
2023-01-17T23:11:43.910Z,1.40
2023-01-17T23:14:23.732Z,1.50
2023-01-17T23:17:10.102Z,1.40
2023-01-17T23:19:40.391Z,1.40
2023-01-17T23:22:20.400Z,1.10
2023-01-17T23:24:48.298Z,1.50
2023-01-17T23:27:41.253Z,1.40
2023-01-17T23:34:27.666Z,1.50
2023-01-17T23:36:54.431Z,1.50
2023-01-17T23:39:21.205Z,1.40
2023-01-17T23:42:06.837Z,1.50
2023-01-17T23:44:33.597Z,1.50
2023-01-17T23:47:00.475Z,1.10
2023-01-17T23:49:29.537Z,1.40
2023-01-17T23:51:56.277Z,1.50
2023-01-17T23:54:23.090Z,1.50
2023-01-17T23:56:49.860Z,1.40
2023-01-17T23:59:16.617Z,1.50
